sensor_id;sensor_type;location;lat;lon;timestamp;pressure;altitude;pressure_sealevel;temperature;humidity
47809;BME280;33573;38.790;-77.084;2023-05-29T00:01:57;101298.98;;;23.42;37.28
47809;BME280;33573;38.790;-77.084;2023-05-29T00:04:23;101298.87;;;23.93;37.28
47809;BME280;33573;38.790;-77.084;2023-05-29T00:06:48;101295.50;;;23.47;37.20
47809;BME280;33573;38.790;-77.084;2023-05-29T00:09:13;101297.15;;;23.73;37.22
47809;BME280;33573;38.790;-77.084;2023-05-29T00:11:39;101295.02;;;23.34;37.60
47809;BME280;33573;38.790;-77.084;2023-05-29T00:14:04;101293.00;;;23.55;37.74
47809;BME280;33573;38.790;-77.084;2023-05-29T00:16:30;101293.34;;;23.46;37.71
47809;BME280;33573;38.790;-77.084;2023-05-29T00:18:55;101288.33;;;23.43;37.94
47809;BME280;33573;38.790;-77.084;2023-05-29T00:21:20;101284.83;;;23.11;38.03
47809;BME280;33573;38.790;-77.084;2023-05-29T00:23:48;101282.21;;;23.79;37.81
47809;BME280;33573;38.790;-77.084;2023-05-29T00:26:12;101282.57;;;23.13;37.92
47809;BME280;33573;38.790;-77.084;2023-05-29T00:28:37;101283.34;;;23.36;37.82
47809;BME280;33573;38.790;-77.084;2023-05-29T00:31:03;101285.65;;;23.70;37.63
47809;BME280;33573;38.790;-77.084;2023-05-29T00:33:27;101289.04;;;23.21;38.33
47809;BME280;33573;38.790;-77.084;2023-05-29T00:35:53;101289.83;;;23.28;38.48
47809;BME280;33573;38.790;-77.084;2023-05-29T00:38:18;101288.51;;;23.49;38.00
47809;BME280;33573;38.790;-77.084;2023-05-29T00:40:44;101287.55;;;23.11;37.89
47809;BME280;33573;38.790;-77.084;2023-05-29T00:43:09;101289.50;;;23.49;38.25
47809;BME280;33573;38.790;-77.084;2023-05-29T00:45:35;101297.18;;;23.41;37.72
47809;BME280;33573;38.790;-77.084;2023-05-29T00:48:00;101301.56;;;23.57;38.00
47809;BME280;33573;38.790;-77.084;2023-05-29T00:50:25;101301.13;;;23.25;38.45
47809;BME280;33573;38.790;-77.084;2023-05-29T00:52:51;101303.05;;;23.55;38.06
47809;BME280;33573;38.790;-77.084;2023-05-29T00:55:16;101306.11;;;23.13;38.10
47809;BME280;33573;38.790;-77.084;2023-05-29T00:57:42;101308.78;;;23.31;38.16
47809;BME280;33573;38.790;-77.084;2023-05-29T01:00:08;101312.51;;;23.57;38.13
47809;BME280;33573;38.790;-77.084;2023-05-29T01:02:32;101309.62;;;23.45;38.00
47809;BME280;33573;38.790;-77.084;2023-05-29T01:04:58;101309.45;;;23.11;37.98
47809;BME280;33573;38.790;-77.084;2023-05-29T01:07:23;101309.90;;;23.46;38.34
47809;BME280;33573;38.790;-77.084;2023-05-29T01:09:49;101307.91;;;23.41;38.33
47809;BME280;33573;38.790;-77.084;2023-05-29T01:12:23;101307.96;;;23.26;38.05
47809;BME280;33573;38.790;-77.084;2023-05-29T01:17:11;101307.56;;;23.19;38.58
47809;BME280;33573;38.790;-77.084;2023-05-29T01:19:44;101305.24;;;23.29;37.95
47809;BME280;33573;38.790;-77.084;2023-05-29T01:22:04;101300.78;;;23.41;38.28
47809;BME280;33573;38.790;-77.084;2023-05-29T01:24:29;101298.57;;;23.21;37.89
47809;BME280;33573;38.790;-77.084;2023-05-29T01:26:50;101298.77;;;23.06;38.49
47809;BME280;33573;38.790;-77.084;2023-05-29T01:29:15;101295.86;;;22.84;38.13
47809;BME280;33573;38.790;-77.084;2023-05-29T01:31:37;101296.04;;;22.77;38.54
47809;BME280;33573;38.790;-77.084;2023-05-29T01:34:03;101296.69;;;22.82;38.19
47809;BME280;33573;38.790;-77.084;2023-05-29T01:36:28;101302.35;;;23.44;37.94
47809;BME280;33573;38.790;-77.084;2023-05-29T01:38:57;101306.29;;;23.30;38.50
47809;BME280;33573;38.790;-77.084;2023-05-29T01:41:20;101314.76;;;23.16;38.58
47809;BME280;33573;38.790;-77.084;2023-05-29T01:43:45;101321.71;;;23.00;38.70
47809;BME280;33573;38.790;-77.084;2023-05-29T01:46:10;101326.21;;;23.38;38.07
47809;BME280;33573;38.790;-77.084;2023-05-29T01:48:36;101327.76;;;23.00;38.22
47809;BME280;33573;38.790;-77.084;2023-05-29T01:51:01;101329.72;;;23.14;38.57
47809;BME280;33573;38.790;-77.084;2023-05-29T01:53:26;101326.52;;;22.73;38.65
47809;BME280;33573;38.790;-77.084;2023-05-29T01:55:52;101329.59;;;23.02;38.64
47809;BME280;33573;38.790;-77.084;2023-05-29T01:58:18;101332.10;;;23.21;38.39
47809;BME280;33573;38.790;-77.084;2023-05-29T02:00:42;101332.76;;;22.89;38.63
47809;BME280;33573;38.790;-77.084;2023-05-29T02:03:07;101332.61;;;23.01;38.54
47809;BME280;33573;38.790;-77.084;2023-05-29T02:05:33;101333.63;;;22.98;38.75
47809;BME280;33573;38.790;-77.084;2023-05-29T02:07:58;101334.43;;;22.73;38.15
47809;BME280;33573;38.790;-77.084;2023-05-29T02:10:23;101339.46;;;23.23;38.20
47809;BME280;33573;38.790;-77.084;2023-05-29T02:12:49;101337.46;;;22.83;38.28
47809;BME280;33573;38.790;-77.084;2023-05-29T02:15:14;101336.39;;;22.78;38.24
47809;BME280;33573;38.790;-77.084;2023-05-29T02:17:40;101333.04;;;22.88;38.86
47809;BME280;33573;38.790;-77.084;2023-05-29T02:20:06;101333.85;;;23.15;38.60
47809;BME280;33573;38.790;-77.084;2023-05-29T02:22:30;101329.10;;;22.99;38.42
47809;BME280;33573;38.790;-77.084;2023-05-29T02:24:56;101329.10;;;22.89;38.24
47809;BME280;33573;38.790;-77.084;2023-05-29T02:27:21;101325.72;;;23.19;38.24
47809;BME280;33573;38.790;-77.084;2023-05-29T02:29:47;101327.13;;;23.02;38.32
47809;BME280;33573;38.790;-77.084;2023-05-29T02:32:12;101319.62;;;22.73;38.91
47809;BME280;33573;38.790;-77.084;2023-05-29T02:34:38;101317.05;;;22.90;38.23
47809;BME280;33573;38.790;-77.084;2023-05-29T02:37:03;101317.51;;;23.28;38.29
47809;BME280;33573;38.790;-77.084;2023-05-29T02:39:28;101315.01;;;23.14;38.39
47809;BME280;33573;38.790;-77.084;2023-05-29T02:41:54;101314.51;;;23.15;38.39
47809;BME280;33573;38.790;-77.084;2023-05-29T02:44:19;101315.18;;;23.22;38.30
47809;BME280;33573;38.790;-77.084;2023-05-29T02:46:44;101309.68;;;23.26;37.98
47809;BME280;33573;38.790;-77.084;2023-05-29T02:49:10;101308.51;;;22.87;38.39
47809;BME280;33573;38.790;-77.084;2023-05-29T02:51:35;101305.82;;;22.84;38.82
47809;BME280;33573;38.790;-77.084;2023-05-29T02:54:01;101303.43;;;23.00;38.45
47809;BME280;33573;38.790;-77.084;2023-05-29T02:56:26;101302.82;;;22.95;38.33
47809;BME280;33573;38.790;-77.084;2023-05-29T02:58:51;101304.75;;;23.13;37.93
47809;BME280;33573;38.790;-77.084;2023-05-29T03:01:17;101304.22;;;23.44;37.79
47809;BME280;33573;38.790;-77.084;2023-05-29T03:03:42;101298.44;;;23.26;37.65
47809;BME280;33573;38.790;-77.084;2023-05-29T03:06:08;101298.15;;;23.21;37.69
47809;BME280;33573;38.790;-77.084;2023-05-29T03:08:34;101297.11;;;23.22;37.65
47809;BME280;33573;38.790;-77.084;2023-05-29T03:10:58;101297.94;;;23.13;37.82
47809;BME280;33573;38.790;-77.084;2023-05-29T03:13:24;101297.04;;;23.44;37.68
47809;BME280;33573;38.790;-77.084;2023-05-29T03:15:49;101295.79;;;23.40;37.68
47809;BME280;33573;38.790;-77.084;2023-05-29T03:18:15;101296.97;;;23.13;37.51
47809;BME280;33573;38.790;-77.084;2023-05-29T03:20:40;101292.33;;;23.31;37.83
47809;BME280;33573;38.790;-77.084;2023-05-29T03:23:05;101287.40;;;23.18;37.62
47809;BME280;33573;38.790;-77.084;2023-05-29T03:25:31;101284.21;;;23.09;37.66
47809;BME280;33573;38.790;-77.084;2023-05-29T03:27:56;101281.60;;;23.10;37.75
47809;BME280;33573;38.790;-77.084;2023-05-29T03:30:22;101283.42;;;23.36;37.58
47809;BME280;33573;38.790;-77.084;2023-05-29T03:32:47;101282.84;;;23.35;37.63
47809;BME280;33573;38.790;-77.084;2023-05-29T03:35:12;101282.62;;;23.35;37.59
47809;BME280;33573;38.790;-77.084;2023-05-29T03:37:38;101279.05;;;23.71;37.62
47809;BME280;33573;38.790;-77.084;2023-05-29T03:40:04;101282.53;;;23.29;37.79
47809;BME280;33573;38.790;-77.084;2023-05-29T03:42:29;101286.09;;;23.31;38.00
47809;BME280;33573;38.790;-77.084;2023-05-29T03:44:54;101285.40;;;23.52;37.96
47809;BME280;33573;38.790;-77.084;2023-05-29T03:47:19;101284.91;;;23.49;37.95
47809;BME280;33573;38.790;-77.084;2023-05-29T03:49:45;101276.51;;;23.23;37.93
47809;BME280;33573;38.790;-77.084;2023-05-29T03:52:10;101270.78;;;23.47;38.04
47809;BME280;33573;38.790;-77.084;2023-05-29T03:54:36;101267.57;;;23.45;38.01
47809;BME280;33573;38.790;-77.084;2023-05-29T03:57:01;101267.60;;;23.44;37.95
47809;BME280;33573;38.790;-77.084;2023-05-29T03:59:27;101265.31;;;23.40;37.96
47809;BME280;33573;38.790;-77.084;2023-05-29T04:01:52;101263.42;;;23.40;38.01
47809;BME280;33573;38.790;-77.084;2023-05-29T04:04:17;101254.95;;;23.39;37.95
47809;BME280;33573;38.790;-77.084;2023-05-29T04:06:43;101250.05;;;23.37;38.01
47809;BME280;33573;38.790;-77.084;2023-05-29T04:09:08;101251.71;;;23.33;38.03
47809;BME280;33573;38.790;-77.084;2023-05-29T04:11:34;101248.71;;;23.19;38.10
47809;BME280;33573;38.790;-77.084;2023-05-29T04:13:59;101245.32;;;23.17;37.97
47809;BME280;33573;38.790;-77.084;2023-05-29T04:16:25;101243.77;;;23.37;37.93
47809;BME280;33573;38.790;-77.084;2023-05-29T04:18:50;101248.98;;;23.36;38.16
47809;BME280;33573;38.790;-77.084;2023-05-29T04:21:15;101250.03;;;23.32;38.11
47809;BME280;33573;38.790;-77.084;2023-05-29T04:23:41;101251.99;;;23.33;38.16
47809;BME280;33573;38.790;-77.084;2023-05-29T04:26:06;101252.47;;;23.31;38.04
47809;BME280;33573;38.790;-77.084;2023-05-29T04:28:32;101247.23;;;23.13;37.96
47809;BME280;33573;38.790;-77.084;2023-05-29T04:30:57;101244.14;;;23.34;37.92
47809;BME280;33573;38.790;-77.084;2023-05-29T04:33:22;101237.67;;;23.27;38.00
47809;BME280;33573;38.790;-77.084;2023-05-29T04:35:48;101236.10;;;23.27;38.06
47809;BME280;33573;38.790;-77.084;2023-05-29T04:38:13;101234.67;;;23.33;37.89
47809;BME280;33573;38.790;-77.084;2023-05-29T04:40:39;101232.10;;;23.31;38.03
47809;BME280;33573;38.790;-77.084;2023-05-29T04:43:04;101230.69;;;23.34;38.00
47809;BME280;33573;38.790;-77.084;2023-05-29T04:45:29;101228.83;;;23.21;38.01
47809;BME280;33573;38.790;-77.084;2023-05-29T04:47:55;101228.41;;;23.22;38.11
47809;BME280;33573;38.790;-77.084;2023-05-29T04:50:21;101223.91;;;23.25;38.15
47809;BME280;33573;38.790;-77.084;2023-05-29T04:52:46;101214.27;;;23.28;37.97
47809;BME280;33573;38.790;-77.084;2023-05-29T04:55:11;101210.54;;;23.30;37.91
47809;BME280;33573;38.790;-77.084;2023-05-29T04:57:37;101207.65;;;23.27;38.02
47809;BME280;33573;38.790;-77.084;2023-05-29T05:00:02;101200.63;;;23.29;37.87
47809;BME280;33573;38.790;-77.084;2023-05-29T05:02:27;101194.62;;;23.20;38.16
47809;BME280;33573;38.790;-77.084;2023-05-29T05:04:53;101186.84;;;23.33;37.84
47809;BME280;33573;38.790;-77.084;2023-05-29T05:07:18;101186.56;;;23.29;38.19
47809;BME280;33573;38.790;-77.084;2023-05-29T05:09:44;101187.65;;;23.29;38.14
47809;BME280;33573;38.790;-77.084;2023-05-29T05:12:09;101185.81;;;23.16;38.35
47809;BME280;33573;38.790;-77.084;2023-05-29T05:14:35;101179.05;;;23.03;38.00
47809;BME280;33573;38.790;-77.084;2023-05-29T05:17:00;101179.84;;;23.25;38.08
47809;BME280;33573;38.790;-77.084;2023-05-29T05:19:25;101182.75;;;23.20;38.08
47809;BME280;33573;38.790;-77.084;2023-05-29T05:21:51;101179.54;;;23.25;38.26
47809;BME280;33573;38.790;-77.084;2023-05-29T05:24:16;101173.32;;;23.28;38.16
47809;BME280;33573;38.790;-77.084;2023-05-29T05:26:42;101172.40;;;23.23;38.04
47809;BME280;33573;38.790;-77.084;2023-05-29T05:29:07;101170.55;;;23.21;37.95
47809;BME280;33573;38.790;-77.084;2023-05-29T05:31:33;101169.32;;;23.19;38.01
47809;BME280;33573;38.790;-77.084;2023-05-29T05:33:58;101169.67;;;22.85;38.25
47809;BME280;33573;38.790;-77.084;2023-05-29T05:36:23;101169.36;;;23.11;38.12
47809;BME280;33573;38.790;-77.084;2023-05-29T05:38:49;101168.63;;;23.16;37.84
47809;BME280;33573;38.790;-77.084;2023-05-29T05:41:14;101165.96;;;23.26;37.86
47809;BME280;33573;38.790;-77.084;2023-05-29T05:43:40;101162.95;;;22.99;38.00
47809;BME280;33573;38.790;-77.084;2023-05-29T05:46:05;101161.84;;;23.18;38.00
47809;BME280;33573;38.790;-77.084;2023-05-29T05:48:30;101158.32;;;23.14;38.04
47809;BME280;33573;38.790;-77.084;2023-05-29T05:50:56;101156.94;;;23.20;38.27
47809;BME280;33573;38.790;-77.084;2023-05-29T05:53:21;101154.01;;;23.18;38.21
47809;BME280;33573;38.790;-77.084;2023-05-29T05:55:47;101148.79;;;23.15;37.94
47809;BME280;33573;38.790;-77.084;2023-05-29T05:58:12;101145.62;;;22.86;38.20
47809;BME280;33573;38.790;-77.084;2023-05-29T06:00:39;101142.51;;;23.05;38.26
47809;BME280;33573;38.790;-77.084;2023-05-29T06:03:03;101138.57;;;23.14;38.19
47809;BME280;33573;38.790;-77.084;2023-05-29T06:05:29;101134.41;;;22.87;38.33
47809;BME280;33573;38.790;-77.084;2023-05-29T06:07:54;101133.47;;;23.15;37.96
47809;BME280;33573;38.790;-77.084;2023-05-29T06:10:19;101127.90;;;23.14;38.31
47809;BME280;33573;38.790;-77.084;2023-05-29T06:12:45;101122.15;;;22.90;38.27
47809;BME280;33573;38.790;-77.084;2023-05-29T06:15:10;101124.38;;;23.10;38.28
47809;BME280;33573;38.790;-77.084;2023-05-29T06:17:35;101121.18;;;22.91;38.58
47809;BME280;33573;38.790;-77.084;2023-05-29T06:20:01;101123.47;;;23.14;38.09
47809;BME280;33573;38.790;-77.084;2023-05-29T06:22:26;101123.57;;;23.07;38.61
47809;BME280;33573;38.790;-77.084;2023-05-29T06:24:51;101120.22;;;23.01;38.26
47809;BME280;33573;38.790;-77.084;2023-05-29T06:27:17;101116.58;;;23.18;38.40
47809;BME280;33573;38.790;-77.084;2023-05-29T06:29:42;101112.15;;;22.98;38.40
47809;BME280;33573;38.790;-77.084;2023-05-29T06:32:08;101110.18;;;23.10;38.26
47809;BME280;33573;38.790;-77.084;2023-05-29T06:34:33;101107.49;;;23.06;38.25
47809;BME280;33573;38.790;-77.084;2023-05-29T06:36:58;101107.64;;;22.99;38.87
47809;BME280;33573;38.790;-77.084;2023-05-29T06:39:24;101108.23;;;23.02;38.87
47809;BME280;33573;38.790;-77.084;2023-05-29T06:41:49;101109.98;;;22.96;38.51
47809;BME280;33573;38.790;-77.084;2023-05-29T06:44:15;101106.10;;;23.04;38.70
47809;BME280;33573;38.790;-77.084;2023-05-29T06:46:40;101105.09;;;23.03;38.71
47809;BME280;33573;38.790;-77.084;2023-05-29T06:49:05;101102.76;;;23.07;38.00
47809;BME280;33573;38.790;-77.084;2023-05-29T06:51:31;101098.23;;;22.94;38.61
47809;BME280;33573;38.790;-77.084;2023-05-29T06:53:56;101096.27;;;22.96;38.50
47809;BME280;33573;38.790;-77.084;2023-05-29T06:56:22;101096.27;;;22.93;38.51
47809;BME280;33573;38.790;-77.084;2023-05-29T06:58:47;101099.82;;;23.09;39.03
47809;BME280;33573;38.790;-77.084;2023-05-29T07:01:12;101102.19;;;22.91;38.94
47809;BME280;33573;38.790;-77.084;2023-05-29T07:03:38;101105.63;;;23.18;38.68
47809;BME280;33573;38.790;-77.084;2023-05-29T07:06:04;101101.43;;;22.78;38.99
47809;BME280;33573;38.790;-77.084;2023-05-29T07:08:29;101105.67;;;22.92;39.43
47809;BME280;33573;38.790;-77.084;2023-05-29T07:10:54;101111.82;;;22.94;39.07
47809;BME280;33573;38.790;-77.084;2023-05-29T07:13:20;101114.44;;;22.94;39.31
47809;BME280;33573;38.790;-77.084;2023-05-29T07:15:45;101119.64;;;23.07;40.61
47809;BME280;33573;38.790;-77.084;2023-05-29T07:18:10;101120.53;;;23.11;41.17
47809;BME280;33573;38.790;-77.084;2023-05-29T07:20:36;101118.91;;;23.05;41.80
47809;BME280;33573;38.790;-77.084;2023-05-29T07:23:01;101114.09;;;22.92;42.21
47809;BME280;33573;38.790;-77.084;2023-05-29T07:25:27;101113.20;;;22.85;42.46
47809;BME280;33573;38.790;-77.084;2023-05-29T07:27:52;101109.97;;;22.83;42.74
47809;BME280;33573;38.790;-77.084;2023-05-29T07:30:17;101110.65;;;22.76;43.58
47809;BME280;33573;38.790;-77.084;2023-05-29T07:32:43;101110.03;;;22.79;43.22
47809;BME280;33573;38.790;-77.084;2023-05-29T07:35:08;101107.17;;;22.59;43.43
47809;BME280;33573;38.790;-77.084;2023-05-29T07:37:34;101106.62;;;22.81;43.73
47809;BME280;33573;38.790;-77.084;2023-05-29T07:39:58;101108.20;;;22.72;44.25
47809;BME280;33573;38.790;-77.084;2023-05-29T07:42:24;101109.92;;;22.80;43.99
47809;BME280;33573;38.790;-77.084;2023-05-29T07:44:49;101107.99;;;22.71;44.85
47809;BME280;33573;38.790;-77.084;2023-05-29T07:47:15;101103.03;;;22.77;44.51
47809;BME280;33573;38.790;-77.084;2023-05-29T07:49:40;101098.10;;;22.57;44.61
47809;BME280;33573;38.790;-77.084;2023-05-29T07:52:06;101100.67;;;23.16;45.05
47809;BME280;33573;38.790;-77.084;2023-05-29T07:54:31;101102.36;;;22.71;44.84
47809;BME280;33573;38.790;-77.084;2023-05-29T07:56:57;101106.01;;;22.98;44.61
47809;BME280;33573;38.790;-77.084;2023-05-29T07:59:22;101105.39;;;22.68;45.01
47809;BME280;33573;38.790;-77.084;2023-05-29T08:01:48;101107.14;;;22.74;45.16
47809;BME280;33573;38.790;-77.084;2023-05-29T08:04:13;101113.52;;;23.19;45.02
47809;BME280;33573;38.790;-77.084;2023-05-29T08:06:39;101107.60;;;22.84;45.23
47809;BME280;33573;38.790;-77.084;2023-05-29T08:09:04;101109.04;;;22.66;45.19
47809;BME280;33573;38.790;-77.084;2023-05-29T08:11:29;101104.92;;;22.62;45.47
47809;BME280;33573;38.790;-77.084;2023-05-29T08:13:55;101105.75;;;22.59;45.41
47809;BME280;33573;38.790;-77.084;2023-05-29T08:16:20;101100.34;;;22.70;45.91
47809;BME280;33573;38.790;-77.084;2023-05-29T08:18:45;101095.26;;;22.37;45.44
47809;BME280;33573;38.790;-77.084;2023-05-29T08:21:11;101100.95;;;22.55;45.60
47809;BME280;33573;38.790;-77.084;2023-05-29T08:23:36;101101.08;;;22.50;45.58
47809;BME280;33573;38.790;-77.084;2023-05-29T08:26:02;101103.62;;;22.82;45.41
47809;BME280;33573;38.790;-77.084;2023-05-29T08:28:27;101106.96;;;22.55;45.55
47809;BME280;33573;38.790;-77.084;2023-05-29T08:30:53;101106.73;;;22.91;45.95
47809;BME280;33573;38.790;-77.084;2023-05-29T08:33:18;101103.42;;;22.68;46.14
47809;BME280;33573;38.790;-77.084;2023-05-29T08:35:43;101104.56;;;22.64;46.16
47809;BME280;33573;38.790;-77.084;2023-05-29T08:38:09;101099.81;;;22.88;46.36
47809;BME280;33573;38.790;-77.084;2023-05-29T08:40:34;101099.42;;;22.37;46.42
47809;BME280;33573;38.790;-77.084;2023-05-29T08:43:05;101096.77;;;22.55;46.61
47809;BME280;33573;38.790;-77.084;2023-05-29T08:45:25;101101.32;;;22.56;46.39
47809;BME280;33573;38.790;-77.084;2023-05-29T08:47:52;101096.63;;;22.31;46.36
47809;BME280;33573;38.790;-77.084;2023-05-29T08:50:17;101093.11;;;22.58;46.23
47809;BME280;33573;38.790;-77.084;2023-05-29T08:52:41;101095.31;;;22.40;46.19
47809;BME280;33573;38.790;-77.084;2023-05-29T08:55:07;101096.55;;;22.39;46.14
47809;BME280;33573;38.790;-77.084;2023-05-29T08:57:33;101099.24;;;22.38;46.20
47809;BME280;33573;38.790;-77.084;2023-05-29T08:59:57;101109.74;;;22.88;46.37
47809;BME280;33573;38.790;-77.084;2023-05-29T09:02:23;101112.00;;;22.40;46.56
47809;BME280;33573;38.790;-77.084;2023-05-29T09:04:48;101116.26;;;22.82;46.45
47809;BME280;33573;38.790;-77.084;2023-05-29T09:07:13;101119.20;;;22.27;47.01
47809;BME280;33573;38.790;-77.084;2023-05-29T09:09:39;101124.26;;;22.54;46.58
47809;BME280;33573;38.790;-77.084;2023-05-29T09:12:05;101127.72;;;22.24;46.68
47809;BME280;33573;38.790;-77.084;2023-05-29T09:14:33;101123.56;;;22.43;46.60
47809;BME280;33573;38.790;-77.084;2023-05-29T09:16:55;101124.24;;;22.27;46.43
47809;BME280;33573;38.790;-77.084;2023-05-29T09:19:20;101127.49;;;22.26;46.71
47809;BME280;33573;38.790;-77.084;2023-05-29T09:21:46;101130.70;;;22.69;46.77
47809;BME280;33573;38.790;-77.084;2023-05-29T09:24:11;101132.53;;;22.29;46.65
47809;BME280;33573;38.790;-77.084;2023-05-29T09:26:36;101133.02;;;22.47;46.69
47809;BME280;33573;38.790;-77.084;2023-05-29T09:29:03;101132.16;;;22.71;46.65
47809;BME280;33573;38.790;-77.084;2023-05-29T09:31:27;101130.66;;;22.68;46.77
47809;BME280;33573;38.790;-77.084;2023-05-29T09:33:53;101131.36;;;22.68;46.63
47809;BME280;33573;38.790;-77.084;2023-05-29T09:36:22;101129.74;;;22.19;47.00
47809;BME280;33573;38.790;-77.084;2023-05-29T09:38:46;101131.18;;;22.50;46.53
47809;BME280;33573;38.790;-77.084;2023-05-29T09:41:09;101137.39;;;22.44;46.73
47809;BME280;33573;38.790;-77.084;2023-05-29T09:43:34;101135.41;;;22.15;46.77
47809;BME280;33573;38.790;-77.084;2023-05-29T09:46:01;101133.28;;;22.14;46.89
47809;BME280;33573;38.790;-77.084;2023-05-29T09:48:26;101134.09;;;22.61;47.41
47809;BME280;33573;38.790;-77.084;2023-05-29T09:50:50;101130.53;;;22.36;46.94
47809;BME280;33573;38.790;-77.084;2023-05-29T09:53:17;101126.76;;;22.40;46.95
47809;BME280;33573;38.790;-77.084;2023-05-29T09:55:41;101131.76;;;22.32;47.17
47809;BME280;33573;38.790;-77.084;2023-05-29T09:58:06;101137.74;;;22.06;47.11
47809;BME280;33573;38.790;-77.084;2023-05-29T10:00:32;101139.54;;;22.53;47.23
47809;BME280;33573;38.790;-77.084;2023-05-29T10:02:57;101136.37;;;22.47;47.24
47809;BME280;33573;38.790;-77.084;2023-05-29T10:05:22;101134.46;;;22.48;47.14
47809;BME280;33573;38.790;-77.084;2023-05-29T10:07:50;101138.78;;;22.31;47.33
47809;BME280;33573;38.790;-77.084;2023-05-29T10:10:15;101138.91;;;22.25;47.32
47809;BME280;33573;38.790;-77.084;2023-05-29T10:12:44;101132.86;;;22.01;47.51
47809;BME280;33573;38.790;-77.084;2023-05-29T10:15:09;101133.69;;;21.91;47.72
47809;BME280;33573;38.790;-77.084;2023-05-29T10:17:33;101132.29;;;22.26;47.27
47809;BME280;33573;38.790;-77.084;2023-05-29T10:19:56;101134.06;;;22.32;47.15
47809;BME280;33573;38.790;-77.084;2023-05-29T10:22:21;101136.70;;;22.52;47.31
47809;BME280;33573;38.790;-77.084;2023-05-29T10:24:48;101139.97;;;22.38;46.89
47809;BME280;33573;38.790;-77.084;2023-05-29T10:27:12;101138.77;;;22.60;47.02
47809;BME280;33573;38.790;-77.084;2023-05-29T10:29:42;101140.62;;;22.37;46.93
47809;BME280;33573;38.790;-77.084;2023-05-29T10:32:12;101140.05;;;22.43;47.28
47809;BME280;33573;38.790;-77.084;2023-05-29T10:34:36;101138.34;;;22.56;47.05
47809;BME280;33573;38.790;-77.084;2023-05-29T10:37:00;101138.56;;;22.26;47.37
47809;BME280;33573;38.790;-77.084;2023-05-29T10:39:21;101139.50;;;22.26;47.32
47809;BME280;33573;38.790;-77.084;2023-05-29T10:41:45;101142.50;;;22.22;47.45
47809;BME280;33573;38.790;-77.084;2023-05-29T10:49:01;101152.09;;;22.42;47.58
47809;BME280;33573;38.790;-77.084;2023-05-29T10:51:28;101158.21;;;22.53;47.48
47809;BME280;33573;38.790;-77.084;2023-05-29T10:53:52;101155.30;;;22.21;47.70
47809;BME280;33573;38.790;-77.084;2023-05-29T10:56:22;101156.29;;;22.21;47.66
47809;BME280;33573;38.790;-77.084;2023-05-29T10:58:43;101153.18;;;22.42;47.79
47809;BME280;33573;38.790;-77.084;2023-05-29T11:01:08;101148.70;;;22.37;47.86
47809;BME280;33573;38.790;-77.084;2023-05-29T11:03:34;101152.13;;;22.41;47.92
47809;BME280;33573;38.790;-77.084;2023-05-29T11:06:00;101152.77;;;22.14;48.10
47809;BME280;33573;38.790;-77.084;2023-05-29T11:08:29;101155.50;;;22.36;48.13
47809;BME280;33573;38.790;-77.084;2023-05-29T11:10:59;101158.65;;;21.86;49.14
47809;BME280;33573;38.790;-77.084;2023-05-29T11:13:23;101155.59;;;22.49;47.87
47809;BME280;33573;38.790;-77.084;2023-05-29T11:15:41;101160.86;;;20.60;52.55
47809;BME280;33573;38.790;-77.084;2023-05-29T11:18:07;101158.52;;;21.38;50.75
47809;BME280;33573;38.790;-77.084;2023-05-29T11:20:37;101157.96;;;22.27;48.81
47809;BME280;33573;38.790;-77.084;2023-05-29T11:23:02;101159.92;;;21.84;48.17
47809;BME280;33573;38.790;-77.084;2023-05-29T11:25:22;101159.44;;;22.36;47.79
47809;BME280;33573;38.790;-77.084;2023-05-29T11:27:47;101160.95;;;22.43;47.53
47809;BME280;33573;38.790;-77.084;2023-05-29T11:30:13;101165.46;;;22.28;47.53
47809;BME280;33573;38.790;-77.084;2023-05-29T11:32:40;101171.80;;;22.12;48.12
47809;BME280;33573;38.790;-77.084;2023-05-29T11:35:08;101174.49;;;22.33;47.42
47809;BME280;33573;38.790;-77.084;2023-05-29T11:37:29;101172.38;;;22.53;47.04
47809;BME280;33573;38.790;-77.084;2023-05-29T11:39:54;101173.24;;;22.38;47.04
47809;BME280;33573;38.790;-77.084;2023-05-29T11:42:20;101173.69;;;22.43;46.93
47809;BME280;33573;38.790;-77.084;2023-05-29T11:44:45;101168.97;;;22.42;47.12
47809;BME280;33573;38.790;-77.084;2023-05-29T11:47:11;101169.15;;;22.01;47.21
47809;BME280;33573;38.790;-77.084;2023-05-29T11:49:37;101170.80;;;22.41;46.89
47809;BME280;33573;38.790;-77.084;2023-05-29T11:52:08;101173.75;;;22.47;46.98
47809;BME280;33573;38.790;-77.084;2023-05-29T11:54:27;101178.40;;;22.71;47.85
47809;BME280;33573;38.790;-77.084;2023-05-29T11:56:52;101180.43;;;22.74;47.60
47809;BME280;33573;38.790;-77.084;2023-05-29T11:59:18;101177.37;;;22.52;47.72
47809;BME280;33573;38.790;-77.084;2023-05-29T12:01:43;101180.37;;;22.55;47.67
47809;BME280;33573;38.790;-77.084;2023-05-29T12:04:18;101177.60;;;22.53;47.68
47809;BME280;33573;38.790;-77.084;2023-05-29T12:06:34;101177.89;;;22.59;47.72
47809;BME280;33573;38.790;-77.084;2023-05-29T12:08:59;101178.98;;;22.30;47.72
47809;BME280;33573;38.790;-77.084;2023-05-29T12:11:25;101178.43;;;22.80;47.90
47809;BME280;33573;38.790;-77.084;2023-05-29T12:13:56;101180.49;;;22.89;47.34
47809;BME280;33573;38.790;-77.084;2023-05-29T12:16:15;101176.18;;;22.59;47.63
47809;BME280;33573;38.790;-77.084;2023-05-29T12:18:40;101174.81;;;22.37;48.13
47809;BME280;33573;38.790;-77.084;2023-05-29T12:21:06;101176.72;;;22.29;47.69
47809;BME280;33573;38.790;-77.084;2023-05-29T12:23:31;101186.11;;;22.44;47.40
47809;BME280;33573;38.790;-77.084;2023-05-29T12:25:58;101189.04;;;22.36;47.78
47809;BME280;33573;38.790;-77.084;2023-05-29T12:28:22;101192.09;;;22.58;47.75